createdAt,value
2017-02-15T00:00:24.231Z,5.99
2017-02-15T00:00:50.454Z,6.01
2017-02-15T00:01:16.693Z,5.99
2017-02-15T00:01:42.815Z,5.98
2017-02-15T00:02:08.978Z,5.94
2017-02-15T00:02:35.129Z,6.05
2017-02-15T00:03:01.265Z,6.01
2017-02-15T00:03:27.509Z,6.01
2017-02-15T00:03:53.656Z,5.89
2017-02-15T00:04:19.856Z,6.01
2017-02-15T00:04:45.959Z,6.04
2017-02-15T00:05:12.150Z,6.07
2017-02-15T00:05:38.302Z,6.12
2017-02-15T00:06:04.472Z,6.17
2017-02-15T00:06:30.603Z,6.17
2017-02-15T00:06:56.726Z,6.2
2017-02-15T00:07:22.896Z,6.28
2017-02-15T00:07:49.218Z,6.27
2017-02-15T00:08:15.303Z,6.27
2017-02-15T00:08:41.426Z,6.28
2017-02-15T00:09:07.625Z,6.39
2017-02-15T00:09:33.762Z,6.35
2017-02-15T00:09:59.928Z,6.38
2017-02-15T00:10:26.055Z,6.35
2017-02-15T00:10:52.172Z,6.41
2017-02-15T00:11:18.334Z,6.36
2017-02-15T00:11:44.433Z,6.39
2017-02-15T00:12:10.591Z,6.35
2017-02-15T00:12:36.749Z,6.45
2017-02-15T00:13:02.975Z,6.48
2017-02-15T00:13:29.089Z,6.38
2017-02-15T00:13:55.266Z,6.46
2017-02-15T00:14:21.407Z,6.52
2017-02-15T00:14:47.593Z,6.54
2017-02-15T00:15:13.737Z,6.46
2017-02-15T00:15:39.868Z,6.54
2017-02-15T00:16:06.096Z,6.57
2017-02-15T00:16:32.215Z,6.56
2017-02-15T00:16:58.316Z,6.52
2017-02-15T00:17:24.491Z,6.59
2017-02-15T00:17:50.617Z,6.6
2017-02-15T00:18:16.776Z,6.67
2017-02-15T00:18:42.915Z,6.63
2017-02-15T00:19:09.061Z,6.56
2017-02-15T00:19:35.211Z,6.51
2017-02-15T00:20:01.416Z,6.46
2017-02-15T00:20:27.570Z,6.36
2017-02-15T00:20:53.696Z,6.33
2017-02-15T00:21:19.891Z,6.27
2017-02-15T00:21:46.070Z,6.31
2017-02-15T00:22:12.249Z,6.26
2017-02-15T00:22:38.345Z,6.24
2017-02-15T00:23:04.553Z,6.31
2017-02-15T00:23:30.698Z,6.22
2017-02-15T00:23:56.831Z,6.22
2017-02-15T00:24:22.928Z,6.35
2017-02-15T00:24:49.057Z,6.35
2017-02-15T00:25:15.261Z,6.36
2017-02-15T00:25:41.385Z,6.35
2017-02-15T00:26:07.499Z,6.45
2017-02-15T00:26:33.638Z,6.45
2017-02-15T00:26:59.768Z,6.41
2017-02-15T00:27:25.869Z,6.39
2017-02-15T00:27:51.963Z,6.27
2017-02-15T00:28:18.100Z,6.33
2017-02-15T00:28:44.307Z,6.36
2017-02-15T00:29:10.450Z,6.36
2017-02-15T00:29:36.604Z,6.3
2017-02-15T00:30:02.718Z,6.28
2017-02-15T00:30:28.849Z,6.38
2017-02-15T00:30:54.979Z,6.3
2017-02-15T00:31:21.157Z,6.39
2017-02-15T00:31:47.277Z,6.36
2017-02-15T00:32:13.456Z,6.35
2017-02-15T00:32:39.625Z,6.35
2017-02-15T00:33:05.783Z,6.33
2017-02-15T00:33:31.927Z,6.41
2017-02-15T00:33:58.045Z,6.33
2017-02-15T00:34:24.218Z,6.3
2017-02-15T00:34:50.343Z,6.17
2017-02-15T00:35:16.463Z,6.26
2017-02-15T00:35:42.595Z,6.17
2017-02-15T00:36:08.797Z,6.14
2017-02-15T00:36:34.983Z,6.07
2017-02-15T00:37:01.123Z,6.12
2017-02-15T00:37:27.276Z,6.09
2017-02-15T00:37:53.466Z,6.14
2017-02-15T00:38:19.581Z,6.17
2017-02-15T00:38:45.731Z,6.2
2017-02-15T00:39:11.835Z,6.17
2017-02-15T00:39:38.003Z,6.2
2017-02-15T00:40:04.223Z,6.28
2017-02-15T00:40:30.355Z,6.31
2017-02-15T00:40:56.525Z,6.35
2017-02-15T00:41:22.705Z,6.35
2017-02-15T00:41:48.831Z,6.3
2017-02-15T00:42:15.019Z,6.36
2017-02-15T00:42:41.166Z,6.35
2017-02-15T00:43:07.287Z,6.42
2017-02-15T00:43:33.445Z,6.41
2017-02-15T00:43:59.597Z,6.45
2017-02-15T00:44:25.689Z,6.44
2017-02-15T00:44:51.851Z,6.38
2017-02-15T00:45:18.026Z,6.46
2017-02-15T00:45:44.289Z,6.44
2017-02-15T00:46:10.839Z,6.52
2017-02-15T00:46:36.977Z,6.52
2017-02-15T00:47:03.125Z,6.51
2017-02-15T00:47:29.245Z,6.49
2017-02-15T00:47:55.393Z,6.51
2017-02-15T00:48:21.612Z,6.49
2017-02-15T00:48:47.758Z,6.46
2017-02-15T00:49:13.922Z,6.51
2017-02-15T00:49:40.046Z,6.56
2017-02-15T00:50:06.190Z,6.52
2017-02-15T00:50:32.313Z,6.52
2017-02-15T00:50:58.460Z,6.54
2017-02-15T00:51:24.605Z,6.57
2017-02-15T00:51:50.796Z,6.59
2017-02-15T00:52:16.889Z,6.6
2017-02-15T00:52:43.055Z,6.6
2017-02-15T00:53:09.221Z,6.6
2017-02-15T00:53:35.401Z,6.6
2017-02-15T00:54:01.540Z,6.6
2017-02-15T00:54:27.713Z,6.62
2017-02-15T00:54:53.836Z,6.64
2017-02-15T00:55:19.940Z,6.57
2017-02-15T00:55:46.100Z,6.63
2017-02-15T00:56:12.235Z,6.6
2017-02-15T00:56:38.342Z,6.6
2017-02-15T00:57:04.484Z,6.59
2017-02-15T00:57:30.595Z,6.62
2017-02-15T00:57:56.733Z,6.7
2017-02-15T00:58:22.828Z,6.75
2017-02-15T00:58:48.935Z,6.59
2017-02-15T00:59:15.078Z,6.63
2017-02-15T00:59:41.171Z,6.72
2017-02-15T01:00:07.330Z,6.67
2017-02-15T01:00:33.494Z,6.67
2017-02-15T01:00:59.607Z,6.62
2017-02-15T01:01:25.746Z,6.56
2017-02-15T01:01:51.894Z,6.7
2017-02-15T01:02:18.006Z,6.63
2017-02-15T01:02:44.176Z,6.6
2017-02-15T01:03:10.328Z,6.62
2017-02-15T01:03:36.480Z,6.62
2017-02-15T01:04:02.614Z,6.57
2017-02-15T01:04:28.737Z,6.6
2017-02-15T01:04:54.862Z,6.6
2017-02-15T01:05:21.043Z,6.6
2017-02-15T01:05:47.231Z,6.63
2017-02-15T01:06:13.390Z,6.6
2017-02-15T01:06:39.580Z,6.6
2017-02-15T01:07:05.709Z,6.63
2017-02-15T01:07:31.910Z,6.57
2017-02-15T01:07:58.041Z,6.6
2017-02-15T01:08:24.193Z,6.6
2017-02-15T01:08:50.371Z,6.57
2017-02-15T01:09:16.562Z,6.6
2017-02-15T01:09:42.715Z,6.56
2017-02-15T01:10:08.877Z,6.57
2017-02-15T01:10:34.982Z,6.63
2017-02-15T01:11:01.105Z,6.62
2017-02-15T01:11:27.340Z,6.6
2017-02-15T01:11:53.519Z,6.59
2017-02-15T01:12:19.693Z,6.57
2017-02-15T01:12:45.878Z,6.6
2017-02-15T01:13:12.019Z,6.6
2017-02-15T01:13:38.220Z,6.63
2017-02-15T01:14:04.413Z,6.57
2017-02-15T01:14:30.556Z,6.57
2017-02-15T01:14:56.698Z,6.56
2017-02-15T01:15:22.806Z,6.51
2017-02-15T01:15:48.923Z,6.54
2017-02-15T01:16:15.074Z,6.52
2017-02-15T01:16:41.273Z,6.49
2017-02-15T01:17:07.429Z,6.48
2017-02-15T01:17:33.538Z,6.48
2017-02-15T01:17:59.633Z,6.48
2017-02-15T01:18:25.743Z,6.48
2017-02-15T01:18:51.910Z,6.56
2017-02-15T01:19:18.055Z,6.48
2017-02-15T01:19:44.191Z,6.51
2017-02-15T01:20:10.360Z,6.49
2017-02-15T01:20:36.485Z,6.54
2017-02-15T01:21:02.664Z,6.51
2017-02-15T01:21:28.842Z,6.49
2017-02-15T01:21:54.964Z,6.51
2017-02-15T01:22:21.095Z,6.49
2017-02-15T01:22:47.227Z,6.45
2017-02-15T01:23:13.367Z,6.39
2017-02-15T01:23:39.562Z,6.3
2017-02-15T01:24:05.745Z,6.39
2017-02-15T01:24:31.846Z,6.28
2017-02-15T01:24:58.021Z,6.26
2017-02-15T01:25:24.169Z,6.27
2017-02-15T01:25:50.287Z,6.27
2017-02-15T01:26:16.493Z,6.33
2017-02-15T01:26:42.601Z,6.3
2017-02-15T01:27:08.805Z,6.27
2017-02-15T01:27:34.974Z,6.36
2017-02-15T01:28:01.109Z,6.38
2017-02-15T01:28:27.274Z,6.35
2017-02-15T01:28:53.412Z,6.28
2017-02-15T01:29:19.549Z,6.36
2017-02-15T01:29:45.671Z,6.35
2017-02-15T01:30:11.865Z,6.36
2017-02-15T01:30:38.013Z,6.42
2017-02-15T01:31:04.141Z,6.41
2017-02-15T01:31:30.294Z,6.42
2017-02-15T01:31:56.467Z,6.36
2017-02-15T01:32:22.595Z,6.42
2017-02-15T01:32:48.715Z,6.41
2017-02-15T01:33:14.893Z,6.41
2017-02-15T01:33:41.017Z,6.3
2017-02-15T01:34:07.123Z,6.38
2017-02-15T01:34:33.215Z,6.33
2017-02-15T01:34:59.367Z,6.35
2017-02-15T01:35:25.534Z,6.31
2017-02-15T01:35:51.633Z,6.24
2017-02-15T01:36:17.807Z,6.22
2017-02-15T01:36:44.011Z,6.24
2017-02-15T01:37:10.138Z,6.24
2017-02-15T01:37:36.255Z,6.26
2017-02-15T01:38:02.367Z,6.28
2017-02-15T01:38:28.536Z,6.28
2017-02-15T01:38:54.660Z,6.24
2017-02-15T01:39:20.791Z,6.24
2017-02-15T01:39:46.970Z,6.22
2017-02-15T01:40:13.177Z,6.19
2017-02-15T01:40:39.332Z,6.09
2017-02-15T01:41:05.482Z,6.09
2017-02-15T01:41:31.661Z,6.07
2017-02-15T01:41:57.764Z,6.05
2017-02-15T01:42:23.893Z,6.05
2017-02-15T01:42:50.055Z,6.12
2017-02-15T01:43:16.225Z,6.09
2017-02-15T01:43:42.342Z,6.17
2017-02-15T01:44:08.476Z,6.08
2017-02-15T01:44:34.617Z,6.12
2017-02-15T01:45:00.741Z,6.22
2017-02-15T01:45:26.900Z,6.27
2017-02-15T01:45:53.024Z,6.28
2017-02-15T01:46:19.191Z,6.24
2017-02-15T01:46:45.337Z,6.26
2017-02-15T01:47:11.482Z,6.22
2017-02-15T01:47:37.661Z,6.08
2017-02-15T01:48:03.841Z,6.04
2017-02-15T01:48:29.929Z,6.05
2017-02-15T01:48:56.060Z,6.02
2017-02-15T01:49:22.231Z,5.99
2017-02-15T01:49:48.396Z,5.98
2017-02-15T01:50:14.542Z,5.9
2017-02-15T01:50:40.673Z,6.01
2017-02-15T01:51:06.895Z,6.04
2017-02-15T01:51:33.036Z,6.05
2017-02-15T01:51:59.151Z,6.01
2017-02-15T01:52:25.252Z,5.99
2017-02-15T01:52:51.396Z,6.02
2017-02-15T01:53:17.496Z,6.02
2017-02-15T01:53:43.638Z,6.07
2017-02-15T01:54:09.755Z,5.99
2017-02-15T01:54:35.883Z,6.04
2017-02-15T01:55:02.048Z,6.09
2017-02-15T01:55:28.231Z,6.08
2017-02-15T01:55:54.369Z,6.17
2017-02-15T01:56:20.560Z,6.09
2017-02-15T01:56:46.692Z,6.11
2017-02-15T01:57:12.815Z,6.04
2017-02-15T01:57:38.999Z,6.08
2017-02-15T01:58:05.116Z,6.17
2017-02-15T01:58:31.236Z,6.14
2017-02-15T01:58:57.458Z,6.14
2017-02-15T01:59:23.629Z,6.17
2017-02-15T01:59:49.721Z,6.17
2017-02-15T02:00:15.829Z,6.27
2017-02-15T02:00:41.971Z,6.26
2017-02-15T02:01:08.087Z,6.22
2017-02-15T02:01:34.192Z,6.19
2017-02-15T02:02:00.343Z,6.24
2017-02-15T02:02:26.488Z,6.22
2017-02-15T02:02:52.649Z,6.3
2017-02-15T02:03:18.747Z,6.14
2017-02-15T02:03:44.940Z,6.28
2017-02-15T02:04:11.090Z,6.35
2017-02-15T02:04:37.232Z,6.3
2017-02-15T02:05:03.403Z,6.22
2017-02-15T02:05:29.603Z,6.22
2017-02-15T02:05:55.753Z,6.22
2017-02-15T02:06:21.883Z,6.35
2017-02-15T02:06:48.020Z,6.28
2017-02-15T02:07:14.115Z,6.3
2017-02-15T02:07:40.258Z,6.27
2017-02-15T02:08:06.377Z,6.2
2017-02-15T02:08:32.559Z,6.24
2017-02-15T02:08:58.757Z,6.27
2017-02-15T02:09:24.852Z,6.2
2017-02-15T02:09:50.957Z,6.2
2017-02-15T02:10:17.093Z,6.26
2017-02-15T02:10:43.195Z,6.22
2017-02-15T02:11:09.319Z,6.2
2017-02-15T02:11:35.435Z,6.22
2017-02-15T02:12:01.587Z,6.19
2017-02-15T02:12:27.784Z,6.22
2017-02-15T02:12:53.930Z,6.19
2017-02-15T02:13:20.124Z,6.28
2017-02-15T02:13:46.315Z,6.33
2017-02-15T02:14:12.481Z,6.22
2017-02-15T02:14:38.621Z,6.24
2017-02-15T02:15:04.814Z,6.24
2017-02-15T02:15:30.937Z,6.26
2017-02-15T02:15:57.055Z,6.31
2017-02-15T02:16:23.172Z,6.27
2017-02-15T02:16:49.297Z,6.28
2017-02-15T02:17:15.433Z,6.27
2017-02-15T02:17:41.586Z,6.28
2017-02-15T02:18:07.736Z,6.26
2017-02-15T02:18:33.869Z,6.31
2017-02-15T02:19:00.001Z,6.2
2017-02-15T02:19:26.111Z,6.31
2017-02-15T02:19:52.259Z,6.28
2017-02-15T02:20:18.389Z,6.35
2017-02-15T02:20:44.587Z,6.35
2017-02-15T02:21:10.743Z,6.24
2017-02-15T02:21:36.838Z,6.22
2017-02-15T02:22:03.014Z,6.27
2017-02-15T02:22:29.232Z,6.24
2017-02-15T02:22:55.349Z,6.24
2017-02-15T02:23:21.496Z,6.26
2017-02-15T02:23:47.633Z,6.24
2017-02-15T02:24:13.770Z,6.27
2017-02-15T02:24:39.893Z,6.22
2017-02-15T02:25:06.017Z,6.31
2017-02-15T02:25:32.189Z,6.2
2017-02-15T02:25:58.316Z,6.16
2017-02-15T02:26:24.440Z,6.3
2017-02-15T02:26:50.573Z,6.35
2017-02-15T02:27:16.677Z,6.26
2017-02-15T02:27:42.821Z,6.16
2017-02-15T02:28:09.003Z,6.14
2017-02-15T02:28:35.146Z,6.22
2017-02-15T02:29:01.330Z,6.26
2017-02-15T02:29:27.481Z,6.19
2017-02-15T02:29:53.613Z,6.27
2017-02-15T02:30:19.782Z,6.16
2017-02-15T02:30:45.919Z,6.02
2017-02-15T02:31:12.036Z,6.05
2017-02-15T02:31:38.179Z,5.87
2017-02-15T02:32:04.322Z,5.99
2017-02-15T02:32:30.469Z,5.99
2017-02-15T02:32:56.659Z,6.01
2017-02-15T02:33:22.755Z,5.98
2017-02-15T02:33:48.934Z,5.93
2017-02-15T02:34:15.114Z,5.84
2017-02-15T02:34:41.286Z,5.98
2017-02-15T02:35:07.441Z,5.93
2017-02-15T02:35:33.639Z,5.94
2017-02-15T02:35:59.727Z,6.01
2017-02-15T02:36:25.883Z,5.99
2017-02-15T02:36:52.025Z,5.94
2017-02-15T02:37:18.119Z,6.02
2017-02-15T02:37:44.246Z,6.04
2017-02-15T02:38:10.356Z,6.07
2017-02-15T02:38:36.485Z,5.99
2017-02-15T02:39:02.629Z,5.94
2017-02-15T02:39:28.747Z,5.94
2017-02-15T02:39:54.929Z,5.93
2017-02-15T02:40:21.076Z,5.83
2017-02-15T02:40:47.188Z,5.84
2017-02-15T02:41:13.395Z,5.79
2017-02-15T02:41:39.534Z,5.79
2017-02-15T02:42:05.656Z,5.79
2017-02-15T02:42:31.783Z,5.76
2017-02-15T02:42:57.950Z,5.79
2017-02-15T02:43:24.105Z,5.79
2017-02-15T02:43:50.224Z,5.75
2017-02-15T02:44:16.425Z,5.83
2017-02-15T02:44:42.564Z,5.83
2017-02-15T02:45:08.739Z,5.86
2017-02-15T02:45:34.939Z,5.93
2017-02-15T02:46:01.107Z,5.89
2017-02-15T02:46:27.207Z,5.89
2017-02-15T02:46:53.371Z,5.89
2017-02-15T02:47:19.486Z,5.9
2017-02-15T02:47:45.682Z,5.89
2017-02-15T02:48:11.873Z,5.97
2017-02-15T02:48:37.996Z,5.83
2017-02-15T02:49:04.135Z,5.86
2017-02-15T02:49:30.247Z,5.8
2017-02-15T02:49:56.399Z,5.83
2017-02-15T02:50:22.584Z,5.84
2017-02-15T02:50:48.726Z,5.86
2017-02-15T02:51:14.846Z,5.87
2017-02-15T02:51:40.951Z,5.79
2017-02-15T02:52:07.113Z,5.76
2017-02-15T02:52:33.248Z,5.71
2017-02-15T02:52:59.428Z,5.69
2017-02-15T02:53:25.542Z,5.75
2017-02-15T02:53:51.694Z,5.68
2017-02-15T02:54:17.833Z,5.69
2017-02-15T02:54:43.988Z,5.66
2017-02-15T02:55:10.145Z,5.61
2017-02-15T02:55:36.312Z,5.66
2017-02-15T02:56:02.471Z,5.64
2017-02-15T02:56:28.622Z,5.56
2017-02-15T02:56:54.764Z,5.56
2017-02-15T02:57:20.869Z,5.56
2017-02-15T02:57:46.994Z,5.61
2017-02-15T02:58:13.136Z,5.64
2017-02-15T02:58:39.274Z,5.66
2017-02-15T02:59:05.373Z,5.66
2017-02-15T02:59:31.511Z,5.66
2017-02-15T02:59:57.672Z,5.72
2017-02-15T03:00:23.794Z,5.71
2017-02-15T03:00:49.976Z,5.69
2017-02-15T03:01:16.112Z,5.62
2017-02-15T03:01:42.236Z,5.66
2017-02-15T03:02:08.391Z,5.69
2017-02-15T03:02:34.555Z,5.66
2017-02-15T03:03:00.681Z,5.75
2017-02-15T03:03:26.858Z,5.71
2017-02-15T03:03:52.948Z,5.62
2017-02-15T03:04:19.052Z,5.51
2017-02-15T03:04:45.185Z,5.53
2017-02-15T03:05:11.308Z,5.39
2017-02-15T03:05:37.438Z,5.39
2017-02-15T03:06:03.613Z,5.43
2017-02-15T03:06:29.761Z,5.39
2017-02-15T03:06:55.916Z,5.36
2017-02-15T03:07:22.087Z,5.39
2017-02-15T03:07:48.226Z,5.5
2017-02-15T03:08:14.371Z,5.5
2017-02-15T03:08:40.561Z,5.47
2017-02-15T03:09:06.689Z,5.53
2017-02-15T03:09:32.806Z,5.62
2017-02-15T03:09:58.929Z,5.54
2017-02-15T03:10:25.106Z,5.57
2017-02-15T03:10:51.223Z,5.51
2017-02-15T03:11:17.347Z,5.51
2017-02-15T03:11:43.472Z,5.5
2017-02-15T03:12:09.614Z,5.51
2017-02-15T03:12:35.720Z,5.53
2017-02-15T03:13:01.866Z,5.56
2017-02-15T03:13:28.005Z,5.62
2017-02-15T03:13:54.175Z,5.66
2017-02-15T03:14:20.275Z,5.62
2017-02-15T03:14:46.405Z,5.61
2017-02-15T03:15:12.522Z,5.57
2017-02-15T03:15:38.691Z,5.47
2017-02-15T03:16:04.853Z,5.47
2017-02-15T03:16:31.003Z,5.36
2017-02-15T03:16:57.108Z,5.5
2017-02-15T03:17:23.254Z,5.53
2017-02-15T03:17:49.370Z,5.48
2017-02-15T03:18:15.534Z,5.57
2017-02-15T03:18:41.708Z,5.56
2017-02-15T03:19:07.863Z,5.5
2017-02-15T03:19:33.991Z,5.54
2017-02-15T03:20:00.171Z,5.59
2017-02-15T03:20:26.288Z,5.56
2017-02-15T03:20:52.392Z,5.66
2017-02-15T03:21:18.513Z,5.57
2017-02-15T03:21:44.647Z,5.62
2017-02-15T03:22:10.785Z,5.68
2017-02-15T03:22:36.911Z,5.62
2017-02-15T03:23:03.039Z,5.66
2017-02-15T03:23:29.180Z,5.62
2017-02-15T03:23:55.360Z,5.64
2017-02-15T03:24:21.485Z,5.57
2017-02-15T03:24:47.688Z,5.54
2017-02-15T03:25:13.790Z,5.41
2017-02-15T03:25:39.958Z,5.41
2017-02-15T03:26:06.056Z,5.36
2017-02-15T03:26:32.208Z,5.41
2017-02-15T03:26:58.382Z,5.46
2017-02-15T03:27:24.509Z,5.43
2017-02-15T03:27:50.657Z,5.33
2017-02-15T03:28:16.800Z,5.44
2017-02-15T03:28:43.018Z,5.41
2017-02-15T03:29:09.172Z,5.5
2017-02-15T03:29:35.305Z,5.48
2017-02-15T03:30:01.444Z,5.59
2017-02-15T03:30:27.591Z,5.54
2017-02-15T03:30:53.726Z,5.54
2017-02-15T03:31:19.847Z,5.56
2017-02-15T03:31:46.000Z,5.54
2017-02-15T03:32:12.128Z,5.51
2017-02-15T03:32:38.254Z,5.54
2017-02-15T03:33:04.393Z,5.56
2017-02-15T03:33:30.530Z,5.61
2017-02-15T03:33:56.649Z,5.51
2017-02-15T03:34:22.783Z,5.54
2017-02-15T03:34:48.919Z,5.59
2017-02-15T03:35:15.040Z,5.54
2017-02-15T03:35:41.167Z,5.59
2017-02-15T03:36:07.344Z,5.51
2017-02-15T03:36:33.502Z,5.51
2017-02-15T03:36:59.644Z,5.57
2017-02-15T03:37:25.790Z,5.59
2017-02-15T03:37:51.925Z,5.62
2017-02-15T03:38:18.094Z,5.54
2017-02-15T03:38:44.185Z,5.56
2017-02-15T03:39:10.293Z,5.56
2017-02-15T03:39:36.435Z,5.56
2017-02-15T03:40:02.570Z,5.61
2017-02-15T03:40:28.723Z,5.62
2017-02-15T03:40:54.928Z,5.57
2017-02-15T03:41:21.081Z,5.62
2017-02-15T03:41:47.201Z,5.66
2017-02-15T03:42:13.349Z,5.66
2017-02-15T03:42:39.536Z,5.66
2017-02-15T03:43:05.653Z,5.71
2017-02-15T03:43:31.792Z,5.73
2017-02-15T03:43:57.956Z,5.62
2017-02-15T03:44:24.133Z,5.68
2017-02-15T03:44:50.298Z,5.68
2017-02-15T03:45:16.464Z,5.68
2017-02-15T03:45:42.556Z,5.59
2017-02-15T03:46:08.691Z,5.71
2017-02-15T03:46:34.887Z,5.71
2017-02-15T03:47:01.014Z,5.65
2017-02-15T03:47:27.158Z,5.62
2017-02-15T03:47:53.262Z,5.69
2017-02-15T03:48:19.393Z,5.76
2017-02-15T03:48:45.532Z,5.73
2017-02-15T03:49:11.679Z,5.72
2017-02-15T03:49:37.788Z,5.8
2017-02-15T03:50:03.904Z,5.66
2017-02-15T03:50:30.076Z,5.71
2017-02-15T03:50:56.176Z,5.71
2017-02-15T03:51:22.317Z,5.66
2017-02-15T03:51:48.441Z,5.68
2017-02-15T03:52:14.533Z,5.66
2017-02-15T03:52:40.651Z,5.61
2017-02-15T03:53:06.835Z,5.68
2017-02-15T03:53:33.026Z,5.64
2017-02-15T03:53:59.179Z,5.72
2017-02-15T03:54:25.331Z,5.71
2017-02-15T03:54:52.108Z,5.69
2017-02-15T03:55:18.206Z,5.61
2017-02-15T03:55:44.329Z,5.69
2017-02-15T03:56:10.502Z,5.61
2017-02-15T03:56:36.691Z,5.64
2017-02-15T03:57:02.837Z,5.69
2017-02-15T03:57:28.949Z,5.65
2017-02-15T03:57:55.084Z,5.68
2017-02-15T03:58:21.286Z,5.57
2017-02-15T03:58:47.451Z,5.62
2017-02-15T03:59:13.613Z,5.66
2017-02-15T03:59:39.765Z,5.66
2017-02-15T04:00:05.890Z,5.71
2017-02-15T04:00:32.065Z,5.66
2017-02-15T04:00:58.205Z,5.62
2017-02-15T04:01:24.368Z,5.64
2017-02-15T04:01:50.536Z,5.61
2017-02-15T04:02:16.645Z,5.66
2017-02-15T04:02:42.815Z,5.57
2017-02-15T04:03:08.962Z,5.53
2017-02-15T04:03:35.088Z,5.48
2017-02-15T04:04:01.198Z,5.43
2017-02-15T04:04:27.348Z,5.35
2017-02-15T04:04:53.502Z,5.41
2017-02-15T04:05:19.640Z,5.43
2017-02-15T04:05:45.794Z,5.44
2017-02-15T04:06:11.890Z,5.44
2017-02-15T04:06:38.065Z,5.38
2017-02-15T04:07:04.262Z,5.41
2017-02-15T04:07:30.454Z,5.43
2017-02-15T04:07:56.622Z,5.35
2017-02-15T04:08:22.783Z,5.38
2017-02-15T04:08:48.935Z,5.39
2017-02-15T04:09:15.153Z,5.35
2017-02-15T04:09:41.298Z,5.38
2017-02-15T04:10:07.420Z,5.41
2017-02-15T04:10:33.578Z,5.33
2017-02-15T04:10:59.757Z,5.35
2017-02-15T04:11:25.922Z,5.39
2017-02-15T04:11:52.059Z,5.35
2017-02-15T04:12:18.153Z,5.26
2017-02-15T04:12:44.286Z,5.32
2017-02-15T04:13:10.427Z,5.29
2017-02-15T04:13:36.573Z,5.32
2017-02-15T04:14:02.785Z,5.3
2017-02-15T04:14:28.959Z,5.35
2017-02-15T04:14:55.111Z,5.33
2017-02-15T04:15:21.238Z,5.38
2017-02-15T04:15:47.464Z,5.36
2017-02-15T04:16:13.655Z,5.38
2017-02-15T04:16:39.823Z,5.38
2017-02-15T04:17:05.944Z,5.38
2017-02-15T04:17:32.075Z,5.43
2017-02-15T04:17:58.248Z,5.38
2017-02-15T04:18:24.397Z,5.41
2017-02-15T04:18:50.504Z,5.46
2017-02-15T04:19:16.645Z,5.36
2017-02-15T04:19:42.769Z,5.46
2017-02-15T04:20:08.889Z,5.54
2017-02-15T04:20:35.003Z,5.48
2017-02-15T04:21:01.142Z,5.5
2017-02-15T04:21:27.272Z,5.38
2017-02-15T04:21:53.422Z,5.41
2017-02-15T04:22:19.614Z,5.33
2017-02-15T04:22:45.748Z,5.36
2017-02-15T04:23:11.958Z,5.5
2017-02-15T04:23:38.132Z,5.56
2017-02-15T04:24:04.275Z,5.44
2017-02-15T04:24:30.407Z,5.46
2017-02-15T04:24:56.508Z,5.51
2017-02-15T04:25:22.642Z,5.53
2017-02-15T04:25:48.748Z,5.54
2017-02-15T04:26:14.894Z,5.51
2017-02-15T04:26:41.063Z,5.59
2017-02-15T04:27:07.227Z,5.59
2017-02-15T04:27:33.343Z,5.48
2017-02-15T04:27:59.457Z,5.51
2017-02-15T04:28:25.633Z,5.51
2017-02-15T04:28:51.776Z,5.53
2017-02-15T04:29:17.875Z,5.56
2017-02-15T04:29:44.020Z,5.62
2017-02-15T04:30:10.151Z,5.53
2017-02-15T04:30:36.271Z,5.57
2017-02-15T04:31:02.386Z,5.54
2017-02-15T04:31:28.576Z,5.56
2017-02-15T04:31:54.749Z,5.56
2017-02-15T04:32:20.931Z,5.5
2017-02-15T04:32:47.091Z,5.62
2017-02-15T04:33:13.254Z,5.57
2017-02-15T04:33:39.381Z,5.66
2017-02-15T04:34:05.530Z,5.61
2017-02-15T04:34:31.648Z,5.54
2017-02-15T04:34:57.814Z,5.62
2017-02-15T04:35:23.960Z,5.56
2017-02-15T04:35:50.123Z,5.53
2017-02-15T04:36:16.230Z,5.59
2017-02-15T04:36:42.320Z,5.56
2017-02-15T04:37:08.514Z,5.48
2017-02-15T04:37:34.685Z,5.53
2017-02-15T04:38:00.807Z,5.47
2017-02-15T04:38:26.910Z,5.5
2017-02-15T04:38:53.084Z,5.47
2017-02-15T04:39:19.188Z,5.47
2017-02-15T04:39:45.298Z,5.35
2017-02-15T04:40:11.469Z,5.33
2017-02-15T04:40:37.632Z,5.54
2017-02-15T04:41:03.748Z,5.36
2017-02-15T04:41:29.889Z,5.38
2017-02-15T04:41:55.996Z,5.36
2017-02-15T04:42:22.164Z,5.39
2017-02-15T04:42:48.289Z,5.36
2017-02-15T04:43:14.387Z,5.36
2017-02-15T04:43:40.551Z,5.35
2017-02-15T04:44:06.691Z,5.36
2017-02-15T04:44:32.830Z,5.41
2017-02-15T04:44:58.949Z,5.43
2017-02-15T04:45:25.108Z,5.35
2017-02-15T04:45:51.285Z,5.38
2017-02-15T04:46:17.433Z,5.39
2017-02-15T04:46:43.500Z,5.41
2017-02-15T04:47:09.643Z,5.38
2017-02-15T04:47:35.769Z,5.36
2017-02-15T04:48:01.939Z,5.43
2017-02-15T04:48:28.085Z,5.43
2017-02-15T04:48:54.269Z,5.36
2017-02-15T04:49:20.402Z,5.41
2017-02-15T04:49:46.537Z,5.47
2017-02-15T04:50:12.662Z,5.43
2017-02-15T04:50:38.775Z,5.44
2017-02-15T04:51:04.927Z,5.44
2017-02-15T04:51:31.076Z,5.39
2017-02-15T04:51:57.220Z,5.36
2017-02-15T04:52:23.346Z,5.5
2017-02-15T04:52:49.463Z,5.39
2017-02-15T04:53:15.609Z,5.38
2017-02-15T04:53:41.741Z,5.38
2017-02-15T04:54:07.887Z,5.44
2017-02-15T04:54:34.032Z,5.33
2017-02-15T04:55:00.122Z,5.39
2017-02-15T04:55:26.300Z,5.39
2017-02-15T04:55:52.478Z,5.35
2017-02-15T04:56:18.577Z,5.32
2017-02-15T04:56:44.745Z,5.35
2017-02-15T04:57:10.912Z,5.35
2017-02-15T04:57:37.080Z,5.35
2017-02-15T04:58:03.273Z,5.38
2017-02-15T04:58:29.389Z,5.35
2017-02-15T04:58:55.482Z,5.29
2017-02-15T04:59:21.613Z,5.32
2017-02-15T04:59:47.752Z,5.32
2017-02-15T05:00:13.842Z,5.3
2017-02-15T05:00:39.984Z,5.3
2017-02-15T05:01:06.130Z,5.21
2017-02-15T05:01:32.269Z,5.15
2017-02-15T05:01:58.442Z,5.23
2017-02-15T05:02:24.532Z,5.15
2017-02-15T05:02:50.720Z,5.17
2017-02-15T05:03:16.830Z,5.21
2017-02-15T05:03:42.982Z,5.12
2017-02-15T05:04:09.111Z,5.17
2017-02-15T05:04:35.315Z,5.14
2017-02-15T05:05:01.493Z,5.2
2017-02-15T05:05:27.675Z,5.14
2017-02-15T05:05:53.834Z,5.2
2017-02-15T05:06:19.943Z,5.15
2017-02-15T05:06:46.114Z,4.97
2017-02-15T05:07:12.260Z,5.12
2017-02-15T05:07:38.467Z,5.02
2017-02-15T05:08:04.609Z,5
2017-02-15T05:08:30.736Z,4.92
2017-02-15T05:08:56.905Z,4.8
2017-02-15T05:09:23.054Z,4.77
2017-02-15T05:09:49.156Z,4.71
2017-02-15T05:10:15.281Z,4.78
2017-02-15T05:10:41.411Z,4.77
2017-02-15T05:11:07.609Z,4.78
2017-02-15T05:11:33.704Z,4.89
2017-02-15T05:11:59.895Z,5
2017-02-15T05:12:26.036Z,4.89
2017-02-15T05:12:52.158Z,5.05
2017-02-15T05:13:18.299Z,4.99
2017-02-15T05:13:44.441Z,5.02
2017-02-15T05:14:10.594Z,5.08
2017-02-15T05:14:36.687Z,5.1
2017-02-15T05:15:02.834Z,5.15
2017-02-15T05:15:28.962Z,5.02
2017-02-15T05:15:55.113Z,5.05
2017-02-15T05:16:21.288Z,4.93
2017-02-15T05:16:47.469Z,4.92
2017-02-15T05:17:13.643Z,4.9
2017-02-15T05:17:39.762Z,4.78
2017-02-15T05:18:05.865Z,4.8
2017-02-15T05:18:31.979Z,4.77
2017-02-15T05:18:58.136Z,4.75
2017-02-15T05:19:24.228Z,4.77
2017-02-15T05:19:50.344Z,4.75
2017-02-15T05:20:16.472Z,4.74
2017-02-15T05:20:42.610Z,4.8
2017-02-15T05:21:08.749Z,4.82
2017-02-15T05:21:34.882Z,4.77
2017-02-15T05:22:01.038Z,4.92
2017-02-15T05:22:27.175Z,4.89
2017-02-15T05:22:53.269Z,4.94
2017-02-15T05:23:19.416Z,5
2017-02-15T05:23:45.608Z,5
2017-02-15T05:24:11.729Z,4.97
2017-02-15T05:24:37.904Z,5.02
2017-02-15T05:25:04.008Z,5.1
2017-02-15T05:25:30.153Z,5.1
2017-02-15T05:25:56.261Z,5.08
2017-02-15T05:26:22.433Z,5.11
2017-02-15T05:26:48.524Z,5.02
2017-02-15T05:27:14.656Z,5.18
2017-02-15T05:27:40.824Z,5.05
2017-02-15T05:28:06.947Z,5.02
2017-02-15T05:28:33.085Z,5.18
2017-02-15T05:28:59.208Z,5.14
2017-02-15T05:29:25.317Z,5.14
2017-02-15T05:29:51.488Z,5.12
2017-02-15T05:30:17.667Z,5.21
2017-02-15T05:30:43.798Z,5.1
2017-02-15T05:31:09.971Z,5.15
2017-02-15T05:31:36.090Z,5.14
2017-02-15T05:32:02.191Z,5.17
2017-02-15T05:32:28.357Z,5.21
2017-02-15T05:32:54.459Z,5.2
2017-02-15T05:33:20.585Z,5.21
2017-02-15T05:33:46.749Z,5.26
2017-02-15T05:34:12.878Z,5.21
2017-02-15T05:34:39.057Z,5.28
2017-02-15T05:35:05.216Z,5.28
2017-02-15T05:35:31.377Z,5.29
2017-02-15T05:35:57.523Z,5.25
2017-02-15T05:36:23.655Z,5.25
2017-02-15T05:36:49.794Z,5.3
2017-02-15T05:37:15.909Z,5.28
2017-02-15T05:37:42.008Z,5.29
2017-02-15T05:38:08.131Z,5.29
2017-02-15T05:38:34.351Z,5.3
2017-02-15T05:39:00.487Z,5.33
2017-02-15T05:39:26.641Z,5.33
2017-02-15T05:39:52.746Z,5.3
2017-02-15T05:40:18.871Z,5.26
2017-02-15T05:40:45.039Z,5.23
2017-02-15T05:41:11.191Z,5.23
2017-02-15T05:41:37.319Z,5.17
2017-02-15T05:42:03.432Z,5.14
2017-02-15T05:42:29.547Z,5.21
2017-02-15T05:42:55.665Z,5.28
2017-02-15T05:43:21.795Z,5.18
2017-02-15T05:43:47.941Z,5.23
2017-02-15T05:44:14.085Z,5.18
2017-02-15T05:44:40.223Z,5.17
2017-02-15T05:45:06.379Z,5.14
2017-02-15T05:45:32.544Z,5.15
2017-02-15T05:45:58.682Z,5.26
2017-02-15T05:46:24.809Z,5.25
2017-02-15T05:46:50.998Z,5.28
2017-02-15T05:47:17.132Z,5.29
2017-02-15T05:47:43.278Z,5.17
2017-02-15T05:48:09.443Z,5.21
2017-02-15T05:48:35.618Z,5.11
2017-02-15T05:49:01.712Z,5.14
2017-02-15T05:49:27.866Z,5.1